Time;durP1;ratioP1;P1;durP2;ratioP2;P2;SDS_P1;SDS_P2;PMS_P1;PMS_P2;Temp;Humidity;BMP_temperature;BMP_pressure;BME280_temperature;BME280_humidity;BME280_pressure;Samples;Min_cycle;Max_cycle;Signal;HPM_P1;HPM_P2
2023/03/10 00:00:44;;;;;;;4.38;3.83;;;21.50;49.90;;;;;;4984622;28;20041;-67
2023/03/10 00:03:10;;;;;;;4.30;3.60;;;21.50;49.80;;;;;;4986773;28;20037;-67
2023/03/10 00:05:37;;;;;;;4.57;3.65;;;21.50;49.80;;;;;;4987306;28;20030;-67
2023/03/10 00:08:04;;;;;;;4.10;3.60;;;21.50;49.80;;;;;;4983101;28;20100;-67
2023/03/10 00:10:29;;;;;;;4.93;3.50;;;21.50;49.80;;;;;;4983532;28;20042;-67
2023/03/10 00:12:55;;;;;;;4.20;3.63;;;21.50;49.90;;;;;;4982501;28;20391;-67
2023/03/10 00:15:22;;;;;;;4.05;3.33;;;21.50;49.80;;;;;;4983769;28;20030;-67
2023/03/10 00:17:54;;;;;;;4.40;3.63;;;21.50;49.80;;;;;;4983108;28;20031;-67
2023/03/10 00:20:20;;;;;;;4.15;3.60;;;21.50;49.80;;;;;;4985154;28;20026;-67
2023/03/10 00:22:46;;;;;;;4.10;3.45;;;21.50;49.80;;;;;;4986309;28;20033;-67
2023/03/10 00:25:12;;;;;;;4.30;3.58;;;21.40;49.70;;;;;;4982657;28;20486;-67
2023/03/10 00:27:37;;;;;;;4.43;3.80;;;21.40;49.70;;;;;;4982582;28;20034;-67
2023/03/10 00:30:04;;;;;;;4.40;3.42;;;21.50;49.80;;;;;;4984530;28;20541;-67
2023/03/10 00:32:29;;;;;;;4.93;3.70;;;21.40;49.70;;;;;;4986326;28;20030;-67
2023/03/10 00:34:55;;;;;;;4.57;3.60;;;21.40;49.70;;;;;;4984734;28;20101;-67
2023/03/10 00:37:21;;;;;;;4.57;3.80;;;21.40;49.70;;;;;;4983240;28;20026;-67
2023/03/10 00:39:50;;;;;;;3.92;3.42;;;21.40;49.70;;;;;;4986808;28;20019;-66
2023/03/10 00:42:15;;;;;;;4.05;3.35;;;21.40;49.70;;;;;;4981901;28;20610;-65
2023/03/10 00:44:41;;;;;;;3.97;3.58;;;21.40;49.70;;;;;;4983181;28;20117;-65
2023/03/10 00:47:06;;;;;;;4.50;3.80;;;21.40;49.60;;;;;;4985201;28;20027;-65
2023/03/10 00:49:32;;;;;;;4.60;3.30;;;21.40;49.70;;;;;;4985298;28;20038;-65
2023/03/10 00:51:58;;;;;;;5.45;3.67;;;21.40;49.70;;;;;;4981220;28;20030;-66
2023/03/10 00:54:23;;;;;;;3.97;3.30;;;21.40;49.70;;;;;;4983651;28;20034;-67
2023/03/10 00:56:49;;;;;;;4.22;3.30;;;21.40;49.70;;;;;;4983108;28;20062;-66
2023/03/10 00:59:14;;;;;;;5.50;3.58;;;21.40;49.70;;;;;;4980050;28;20054;-66
2023/03/10 01:01:41;;;;;;;4.00;3.40;;;21.40;49.70;;;;;;4981828;28;20057;-65
2023/03/10 01:04:15;;;;;;;4.38;3.30;;;21.30;49.60;;;;;;4989963;28;20022;-66
2023/03/10 01:06:42;;;;;;;3.95;3.20;;;21.40;49.70;;;;;;4987679;28;20518;-66
2023/03/10 01:09:08;;;;;;;4.45;3.72;;;21.30;49.60;;;;;;4981281;28;20394;-66
2023/03/10 01:11:34;;;;;;;4.10;3.35;;;21.30;49.60;;;;;;4986683;28;20030;-67
2023/03/10 01:14:02;;;;;;;4.57;3.28;;;21.30;49.60;;;;;;4988404;28;20027;-66
2023/03/10 01:16:28;;;;;;;4.30;3.40;;;21.30;49.60;;;;;;4983195;28;20422;-66
2023/03/10 01:18:55;;;;;;;3.83;3.40;;;21.30;49.60;;;;;;4984639;28;20299;-66
2023/03/10 01:21:27;;;;;;;4.18;3.33;;;21.30;49.60;;;;;;4999796;28;20062;-66
2023/03/10 01:23:53;;;;;;;3.88;3.22;;;21.30;49.60;;;;;;4983784;28;20041;-65
2023/03/10 01:26:19;;;;;;;3.70;3.00;;;21.30;49.60;;;;;;4982443;28;20034;-66
2023/03/10 01:28:45;;;;;;;3.90;3.35;;;21.30;49.60;;;;;;4984192;28;20060;-66
2023/03/10 01:31:11;;;;;;;3.42;2.80;;;21.30;49.60;;;;;;4982882;28;20078;-66
2023/03/10 01:33:38;;;;;;;4.15;3.08;;;21.30;49.60;;;;;;4982843;28;20501;-66
2023/03/10 01:36:12;;;;;;;3.78;3.00;;;21.30;49.60;;;;;;4983149;28;20023;-66
2023/03/10 01:38:38;;;;;;;4.03;3.10;;;21.20;49.50;;;;;;4980915;28;20121;-65
2023/03/10 01:41:05;;;;;;;3.17;2.58;;;21.20;49.50;;;;;;4985029;28;20564;-66
2023/03/10 01:43:36;;;;;;;3.40;2.72;;;21.20;49.50;;;;;;4981925;28;20110;-67
2023/03/10 01:46:24;;;;;;;3.63;3.15;;;21.20;49.60;;;;;;4983074;28;20042;-67
2023/03/10 01:48:50;;;;;;;4.15;3.00;;;21.20;49.60;;;;;;4998067;28;20031;-66
2023/03/10 01:51:16;;;;;;;3.90;2.85;;;21.20;49.50;;;;;;5001054;28;20030;-67
2023/03/10 01:53:42;;;;;;;4.10;2.90;;;21.20;49.50;;;;;;4980726;28;20082;-66
2023/03/10 01:56:08;;;;;;;3.72;2.83;;;21.20;49.60;;;;;;4985418;28;20517;-66
2023/03/10 01:58:39;;;;;;;4.28;2.70;;;21.20;49.50;;;;;;4987589;28;20513;-66
2023/03/10 02:01:06;;;;;;;3.80;3.15;;;21.20;49.60;;;;;;4982254;28;20089;-65
2023/03/10 02:03:48;;;;;;;3.67;2.90;;;21.20;49.60;;;;;;4982404;28;20100;-66
2023/03/10 02:06:18;;;;;;;4.00;2.95;;;21.20;49.60;;;;;;4981478;28;20493;-66
2023/03/10 02:08:53;;;;;;;4.13;2.78;;;21.20;49.50;;;;;;4981464;28;20113;-66
2023/03/10 02:11:19;;;;;;;3.25;2.45;;;21.20;49.50;;;;;;4986551;28;20482;-66
2023/03/10 02:13:45;;;;;;;3.88;2.67;;;21.10;49.50;;;;;;4982735;28;20081;-66
2023/03/10 02:16:12;;;;;;;3.60;2.90;;;21.10;49.40;;;;;;4989045;28;20391;-66
2023/03/10 02:18:40;;;;;;;3.10;2.60;;;21.10;49.50;;;;;;4981389;28;20034;-66
2023/03/10 02:21:33;;;;;;;3.33;2.67;;;21.10;49.50;;;;;;4980291;28;20023;-66
2023/03/10 02:24:04;;;;;;;3.78;2.70;;;21.10;49.50;;;;;;4985038;28;20082;-66
2023/03/10 02:26:53;;;;;;;3.40;2.70;;;21.10;49.50;;;;;;4983062;28;20038;-66
2023/03/10 02:29:42;;;;;;;3.70;2.95;;;21.10;49.50;;;;;;4982366;28;20114;-66
2023/03/10 02:32:09;;;;;;;3.30;2.42;;;21.10;49.50;;;;;;4981990;28;20549;-66
2023/03/10 02:34:35;;;;;;;3.28;2.70;;;21.10;49.50;;;;;;4982446;28;20106;-66
2023/03/10 02:37:00;;;;;;;4.07;2.80;;;21.10;49.50;;;;;;4983921;28;20449;-67
2023/03/10 02:39:26;;;;;;;3.53;2.67;;;21.10;49.50;;;;;;4980814;28;20045;-66
2023/03/10 02:41:52;;;;;;;3.25;2.40;;;21.10;50.00;;;;;;4983028;28;20366;-66
2023/03/10 02:44:20;;;;;;;3.60;2.50;;;21.10;49.50;;;;;;4980570;28;20036;-66
2023/03/10 02:46:46;;;;;;;2.95;2.35;;;21.00;49.40;;;;;;4987450;28;20050;-66
2023/03/10 02:49:12;;;;;;;3.22;2.42;;;21.10;49.50;;;;;;4985345;28;20112;-66
2023/03/10 02:51:42;;;;;;;2.97;2.45;;;21.10;49.50;;;;;;4983795;28;20042;-66
2023/03/10 02:54:08;;;;;;;3.28;2.38;;;21.00;49.50;;;;;;4988511;28;20026;-66
2023/03/10 02:56:35;;;;;;;3.42;2.58;;;21.00;49.40;;;;;;4985030;28;20474;-66
2023/03/10 02:59:01;;;;;;;3.55;2.70;;;21.00;49.40;;;;;;4984719;28;20031;-66
2023/03/10 03:01:29;;;;;;;3.35;2.33;;;21.00;49.50;;;;;;4983485;28;20036;-65
2023/03/10 03:03:55;;;;;;;2.92;2.50;;;21.00;49.40;;;;;;4985794;28;20451;-66
2023/03/10 03:06:21;;;;;;;3.15;2.20;;;21.00;49.40;;;;;;4986464;28;20109;-66
2023/03/10 03:08:47;;;;;;;2.90;2.40;;;21.00;49.50;;;;;;4985210;28;20098;-66
2023/03/10 03:11:13;;;;;;;2.92;2.17;;;21.00;49.40;;;;;;4981770;28;20407;-66
2023/03/10 03:13:39;;;;;;;2.80;2.10;;;21.00;49.50;;;;;;4983451;28;20109;-65
2023/03/10 03:16:07;;;;;;;3.35;2.55;;;21.00;49.50;;;;;;4985435;28;20487;-66
2023/03/10 03:18:32;;;;;;;2.80;2.20;;;21.00;49.40;;;;;;4984446;28;20093;-66
2023/03/10 03:21:02;;;;;;;3.00;2.28;;;21.00;50.00;;;;;;4985944;28;20382;-66
2023/03/10 03:23:27;;;;;;;3.10;2.10;;;21.00;49.40;;;;;;4984771;28;20034;-66
2023/03/10 03:25:53;;;;;;;3.00;2.30;;;21.00;49.40;;;;;;4985871;28;20026;-66
2023/03/10 03:28:18;;;;;;;3.10;2.20;;;21.00;49.40;;;;;;4980637;28;20037;-65
2023/03/10 03:30:45;;;;;;;2.92;2.20;;;21.00;49.40;;;;;;4987902;28;20402;-66
2023/03/10 03:33:10;;;;;;;3.33;2.40;;;21.00;49.40;;;;;;4985548;28;20399;-66
2023/03/10 03:35:36;;;;;;;3.05;2.15;;;21.00;49.50;;;;;;4999748;28;20039;-66
2023/03/10 03:38:04;;;;;;;3.58;2.28;;;21.00;49.40;;;;;;4985468;28;20101;-66
2023/03/10 03:40:32;;;;;;;2.92;2.38;;;20.90;49.40;;;;;;4983468;28;20038;-66
2023/03/10 03:42:58;;;;;;;2.72;2.25;;;20.90;49.40;;;;;;4985178;28;20054;-66
2023/03/10 03:45:26;;;;;;;3.15;2.35;;;20.90;49.40;;;;;;4985207;28;20584;-66
2023/03/10 03:47:51;;;;;;;3.05;2.28;;;20.90;49.40;;;;;;4982621;28;20109;-67
2023/03/10 03:50:19;;;;;;;2.70;2.03;;;20.90;49.40;;;;;;4983887;28;20358;-66
2023/03/10 03:52:45;;;;;;;3.00;2.40;;;20.90;49.40;;;;;;4984124;28;20324;-66
2023/03/10 03:55:13;;;;;;;2.75;2.17;;;20.90;49.40;;;;;;4986324;28;20536;-66
2023/03/10 03:57:38;;;;;;;2.70;2.20;;;20.90;49.40;;;;;;4989075;28;20038;-66
2023/03/10 04:00:07;;;;;;;2.67;2.00;;;20.90;49.40;;;;;;4986475;28;20030;-66
2023/03/10 04:02:33;;;;;;;3.05;2.13;;;20.90;49.40;;;;;;4984723;28;20383;-66
2023/03/10 04:05:02;;;;;;;2.90;2.25;;;20.90;49.40;;;;;;4984249;28;20494;-66
2023/03/10 04:07:27;;;;;;;2.90;2.00;;;20.90;49.40;;;;;;4983730;28;20042;-66
2023/03/10 04:09:53;;;;;;;2.92;2.05;;;20.90;49.40;;;;;;4989640;28;20031;-66
2023/03/10 04:12:18;;;;;;;2.50;1.90;;;20.90;49.30;;;;;;4984839;28;20038;-66
2023/03/10 04:14:44;;;;;;;2.42;1.90;;;20.90;49.30;;;;;;4983657;28;20580;-66
2023/03/10 04:17:09;;;;;;;2.35;1.85;;;20.90;49.30;;;;;;4986014;28;20097;-65
2023/03/10 04:19:35;;;;;;;2.80;2.05;;;20.90;49.30;;;;;;4983499;28;20037;-66
2023/03/10 04:22:01;;;;;;;3.20;2.08;;;20.90;49.30;;;;;;4981834;28;20019;-66
2023/03/10 04:24:26;;;;;;;2.63;2.10;;;20.90;49.30;;;;;;4984514;28;20062;-66
2023/03/10 04:26:52;;;;;;;3.00;2.15;;;20.90;49.30;;;;;;4983142;28;20048;-66
2023/03/10 04:29:18;;;;;;;2.50;1.88;;;20.90;49.30;;;;;;4984252;28;20026;-66
2023/03/10 04:31:43;;;;;;;2.75;2.15;;;20.90;49.30;;;;;;4983403;28;20037;-66
2023/03/10 04:34:09;;;;;;;3.17;2.17;;;20.90;49.20;;;;;;4985394;28;20088;-66
2023/03/10 04:36:35;;;;;;;2.33;1.80;;;20.90;49.20;;;;;;4982694;28;20084;-67
2023/03/10 04:39:01;;;;;;;3.17;2.10;;;20.90;49.20;;;;;;4986931;28;20114;-67
2023/03/10 04:41:26;;;;;;;2.50;1.90;;;20.90;49.20;;;;;;4989342;28;20113;-66
2023/03/10 04:43:52;;;;;;;2.75;1.90;;;20.90;49.10;;;;;;4986683;28;20061;-66
2023/03/10 04:46:17;;;;;;;2.95;2.05;;;20.90;49.10;;;;;;4981984;28;20076;-66
2023/03/10 04:48:44;;;;;;;2.60;2.00;;;20.90;49.10;;;;;;4982279;28;20449;-66
2023/03/10 04:51:11;;;;;;;2.50;1.75;;;20.80;49.10;;;;;;4986954;28;20026;-66
2023/03/10 04:53:37;;;;;;;2.13;1.55;;;20.80;49.10;;;;;;4985248;28;20065;-66
2023/03/10 04:56:06;;;;;;;2.65;1.80;;;20.90;49.00;;;;;;4985730;28;20026;-66
2023/03/10 04:58:33;;;;;;;2.47;1.73;;;20.80;49.00;;;;;;4984745;28;20108;-66
2023/03/10 05:00:58;;;;;;;2.20;1.60;;;20.90;49.00;;;;;;4989869;28;20031;-66
2023/03/10 05:03:24;;;;;;;2.75;1.95;;;20.80;48.90;;;;;;4982582;28;20030;-66
2023/03/10 05:05:50;;;;;;;2.47;1.70;;;20.80;48.90;;;;;;4985182;28;20459;-65
2023/03/10 05:08:15;;;;;;;2.30;1.70;;;20.80;48.80;;;;;;4984452;28;20105;-66
2023/03/10 05:10:46;;;;;;;2.28;1.70;;;20.80;48.80;;;;;;4982696;28;20040;-66
2023/03/10 05:13:12;;;;;;;2.50;1.80;;;20.80;48.80;;;;;;4982774;28;20031;-66
2023/03/10 05:15:39;;;;;;;2.50;1.80;;;20.80;48.80;;;;;;4984186;28;20517;-67
2023/03/10 05:18:06;;;;;;;2.50;1.60;;;20.80;48.70;;;;;;4981710;28;20054;-67
2023/03/10 05:20:31;;;;;;;1.85;1.40;;;20.80;49.20;;;;;;4983673;28;20486;-67
2023/03/10 05:22:57;;;;;;;2.03;1.50;;;20.80;48.70;;;;;;4985260;28;20029;-66
2023/03/10 05:25:22;;;;;;;2.58;1.63;;;20.80;48.70;;;;;;4983312;28;20405;-66
2023/03/10 05:27:48;;;;;;;2.63;1.80;;;20.80;48.70;;;;;;4981491;28;20023;-67
2023/03/10 05:30:14;;;;;;;2.30;1.80;;;20.80;48.60;;;;;;4989738;28;20053;-66
2023/03/10 05:32:41;;;;;;;2.00;1.50;;;20.80;48.60;;;;;;4985209;28;20069;-67
2023/03/10 05:35:07;;;;;;;2.05;1.50;;;20.80;48.60;;;;;;4984593;28;20035;-66
2023/03/10 05:37:38;;;;;;;1.98;1.58;;;20.80;48.60;;;;;;4981569;28;20042;-66
2023/03/10 05:40:06;;;;;;;2.42;1.70;;;20.80;48.60;;;;;;4979944;28;20104;-67
2023/03/10 05:42:32;;;;;;;2.38;1.50;;;20.80;48.60;;;;;;4981246;28;20474;-66
2023/03/10 05:44:57;;;;;;;2.38;1.73;;;20.80;48.50;;;;;;4982116;28;20051;-66
2023/03/10 05:47:23;;;;;;;2.38;1.65;;;20.80;48.50;;;;;;4983958;28;20438;-66
2023/03/10 05:49:48;;;;;;;2.28;1.67;;;20.80;48.50;;;;;;4986181;28;20039;-66
2023/03/10 05:52:14;;;;;;;1.95;1.40;;;20.80;49.10;;;;;;4984096;28;20491;-66
2023/03/10 05:54:40;;;;;;;2.10;1.60;;;20.80;48.50;;;;;;4983624;28;20200;-66
2023/03/10 05:57:05;;;;;;;2.15;1.70;;;20.80;48.50;;;;;;4982418;28;20035;-66
2023/03/10 05:59:31;;;;;;;2.17;1.42;;;20.70;48.50;;;;;;4981708;28;20687;-66
2023/03/10 06:01:57;;;;;;;2.00;1.30;;;20.80;48.50;;;;;;4980985;28;20030;-66
2023/03/10 06:04:22;;;;;;;3.30;1.35;;;20.70;48.40;;;;;;4981791;28;20034;-66
2023/03/10 06:06:48;;;;;;;1.88;1.30;;;20.70;48.60;;;;;;4987105;28;20030;-66
2023/03/10 06:09:13;;;;;;;1.77;1.20;;;20.70;49.30;;;;;;4989791;28;20041;-65
2023/03/10 06:11:39;;;;;;;2.00;1.40;;;20.80;49.40;;;;;;4983962;28;20424;-66
2023/03/10 06:14:05;;;;;;;2.50;1.52;;;20.90;49.40;;;;;;4982050;28;20133;-65
2023/03/10 06:16:30;;;;;;;1.77;1.27;;;21.00;49.30;;;;;;4993094;28;20026;-65
2023/03/10 06:18:56;;;;;;;1.55;1.13;;;21.10;48.80;;;;;;4983098;28;20034;-66
2023/03/10 06:21:22;;;;;;;1.63;1.00;;;21.20;49.00;;;;;;4980648;28;20125;-66
2023/03/10 06:23:49;;;;;;;1.27;1.08;;;21.10;48.70;;;;;;4982298;28;20022;-66
2023/03/10 06:26:16;;;;;;;2.08;1.27;;;21.10;48.60;;;;;;4985538;28;20038;-66
2023/03/10 06:28:45;;;;;;;1.83;1.23;;;21.10;48.80;;;;;;4985323;28;20081;-64
2023/03/10 06:31:17;;;;;;;1.63;1.10;;;21.20;49.30;;;;;;4983552;28;20454;-64
2023/03/10 06:33:43;;;;;;;1.88;1.20;;;21.40;48.70;;;;;;4983554;28;20462;-64
2023/03/10 06:36:11;;;;;;;1.75;1.30;;;21.40;48.40;;;;;;4983303;28;20466;-65
2023/03/10 06:38:37;;;;;;;1.80;1.20;;;21.40;48.20;;;;;;4981879;28;20489;-60
2023/03/10 06:41:03;;;;;;;1.52;1.20;;;21.40;48.20;;;;;;4981900;28;20069;-63
2023/03/10 06:43:30;;;;;;;2.75;1.40;;;21.40;48.20;;;;;;4982359;28;20796;-65
2023/03/10 06:45:55;;;;;;;2.40;1.52;;;21.50;48.70;;;;;;4984424;28;20105;-65
2023/03/10 06:48:21;;;;;;;1.70;1.20;;;21.70;48.40;;;;;;4982090;28;20105;-65
2023/03/10 06:50:47;;;;;;;1.60;1.10;;;21.80;47.90;;;;;;4981889;28;20452;-65
2023/03/10 06:53:14;;;;;;;1.23;1.10;;;21.80;47.80;;;;;;4981975;28;20031;-64
2023/03/10 06:55:40;;;;;;;1.02;0.90;;;21.70;47.80;;;;;;4982910;28;20109;-64
2023/03/10 06:58:06;;;;;;;2.22;1.40;;;21.80;48.30;;;;;;4981338;28;20457;-64
2023/03/10 07:00:31;;;;;;;1.52;1.20;;;21.80;47.80;;;;;;4981882;28;20018;-64
2023/03/10 07:02:57;;;;;;;2.10;1.27;;;21.80;48.20;;;;;;4983975;28;20029;-63
2023/03/10 07:05:26;;;;;;;2.17;1.20;;;22.10;47.90;;;;;;4981908;28;20027;-63
2023/03/10 07:07:52;;;;;;;1.50;1.10;;;22.20;47.30;;;;;;4981983;28;20479;-63
2023/03/10 07:10:18;;;;;;;1.60;1.15;;;22.10;47.20;;;;;;4980775;28;20459;-64
2023/03/10 07:12:44;;;;;;;1.17;0.90;;;22.10;47.30;;;;;;4983299;28;20137;-64
2023/03/10 07:15:10;;;;;;;1.30;1.08;;;22.10;47.30;;;;;;4980706;28;20058;-64
2023/03/10 07:17:36;;;;;;;1.77;1.27;;;22.10;47.30;;;;;;4986882;28;20126;-65
2023/03/10 07:20:03;;;;;;;2.13;1.40;;;22.20;47.60;;;;;;4980528;28;20034;-64
2023/03/10 07:22:29;;;;;;;1.52;1.20;;;22.30;47.30;;;;;;4981770;28;20019;-65
2023/03/10 07:24:55;;;;;;;1.40;1.10;;;22.50;46.90;;;;;;4980751;28;20085;-63
2023/03/10 07:27:22;;;;;;;1.42;1.00;;;22.50;46.80;;;;;;4980436;28;20027;-64
2023/03/10 07:29:47;;;;;;;2.40;1.00;;;22.50;46.80;;;;;;4981723;28;20399;-65
2023/03/10 07:32:15;;;;;;;1.73;1.20;;;22.50;46.80;;;;;;4980376;28;20031;-65
2023/03/10 07:34:41;;;;;;;1.58;1.25;;;22.50;46.70;;;;;;4983887;28;20023;-64
2023/03/10 07:37:08;;;;;;;2.83;1.58;;;22.50;46.90;;;;;;4985255;28;20023;-65
2023/03/10 07:39:33;;;;;;;2.15;1.58;;;22.60;47.00;;;;;;4984495;28;20076;-64
2023/03/10 07:41:59;;;;;;;1.92;1.30;;;22.80;46.80;;;;;;4988329;28;20030;-65
2023/03/10 07:44:25;;;;;;;1.60;1.10;;;22.80;46.50;;;;;;4986062;28;20022;-65
2023/03/10 07:46:50;;;;;;;1.40;1.00;;;22.80;46.40;;;;;;4984461;28;20045;-65
2023/03/10 07:49:16;;;;;;;1.42;1.00;;;22.90;46.40;;;;;;4983391;28;20054;-65
2023/03/10 07:51:41;;;;;;;1.50;1.08;;;22.90;46.50;;;;;;4985356;28;20493;-65
2023/03/10 07:54:08;;;;;;;1.45;1.10;;;22.90;46.40;;;;;;4986048;28;20117;-66
2023/03/10 07:56:33;;;;;;;1.40;1.20;;;22.90;46.90;;;;;;4985903;28;20054;-65
2023/03/10 07:58:59;;;;;;;1.40;1.15;;;23.00;46.60;;;;;;4988502;28;20090;-65
2023/03/10 08:01:25;;;;;;;1.65;1.02;;;23.10;46.30;;;;;;4985134;28;20022;-65
2023/03/10 08:03:51;;;;;;;2.25;1.10;;;23.10;46.20;;;;;;4985688;28;20485;-64
2023/03/10 08:06:23;;;;;;;1.30;0.98;;;23.00;46.20;;;;;;4982257;28;20093;-66
2023/03/10 08:08:49;;;;;;;1.70;0.93;;;23.10;46.30;;;;;;4985966;28;20034;-65
2023/03/10 08:11:15;;;;;;;1.48;1.00;;;23.00;46.40;;;;;;4990617;28;20030;-65
2023/03/10 08:13:41;;;;;;;1.10;1.00;;;23.10;46.30;;;;;;4984392;28;20019;-64
2023/03/10 08:16:07;;;;;;;1.10;0.90;;;23.10;46.20;;;;;;4984555;28;20475;-65
2023/03/10 08:18:33;;;;;;;1.60;1.00;;;23.10;46.20;;;;;;4980963;28;20026;-64
2023/03/10 08:21:01;;;;;;;2.30;1.05;;;23.20;46.10;;;;;;4983313;28;20031;-65
2023/03/10 08:23:27;;;;;;;1.35;1.00;;;23.20;46.10;;;;;;4984066;28;20027;-65
2023/03/10 08:25:52;;;;;;;1.52;1.00;;;23.20;46.00;;;;;;4989685;28;20041;-65
2023/03/10 08:28:18;;;;;;;1.40;1.00;;;23.20;45.90;;;;;;4982959;28;20085;-65
2023/03/10 08:30:44;;;;;;;1.20;0.98;;;23.20;46.00;;;;;;4982448;28;20026;-65
2023/03/10 08:33:10;;;;;;;1.90;1.02;;;23.20;45.80;;;;;;4983809;28;20411;-65
2023/03/10 08:35:37;;;;;;;1.58;1.10;;;23.20;45.80;;;;;;4988252;28;20023;-65
2023/03/10 08:38:03;;;;;;;1.63;1.10;;;23.30;45.80;;;;;;4981691;28;20447;-65
2023/03/10 08:40:30;;;;;;;1.10;0.93;;;23.30;45.70;;;;;;4981367;28;20386;-66
2023/03/10 08:42:56;;;;;;;1.17;1.00;;;23.30;45.60;;;;;;4984378;28;20030;-66
2023/03/10 08:45:22;;;;;;;1.13;0.90;;;23.30;45.50;;;;;;4984412;28;20038;-65
2023/03/10 08:47:47;;;;;;;1.10;0.90;;;23.30;45.50;;;;;;4985319;28;20027;-66
2023/03/10 08:50:13;;;;;;;2.60;1.10;;;23.40;45.40;;;;;;4982898;28;20403;-65
2023/03/10 08:52:39;;;;;;;2.30;1.10;;;23.40;45.40;;;;;;4982609;28;20038;-65
2023/03/10 08:55:06;;;;;;;1.33;0.90;;;23.40;45.20;;;;;;4982901;28;20065;-64
2023/03/10 08:57:32;;;;;;;1.23;0.95;;;23.30;45.20;;;;;;4989253;28;20030;-61
2023/03/10 08:59:58;;;;;;;1.20;1.00;;;23.40;45.20;;;;;;4984163;28;20383;-64
2023/03/10 09:02:25;;;;;;;1.23;1.00;;;23.40;45.10;;;;;;4984502;28;20027;-64
2023/03/10 09:04:51;;;;;;;1.40;1.00;;;23.30;45.10;;;;;;4980744;28;20478;-65
2023/03/10 09:07:17;;;;;;;1.20;0.93;;;23.40;47.20;;;;;;4981545;28;20066;-65
2023/03/10 09:09:43;;;;;;;1.38;0.90;;;23.40;46.20;;;;;;4984309;28;20033;-65
2023/03/10 09:12:09;;;;;;;1.55;1.00;;;23.40;46.30;;;;;;4981401;28;20055;-65
2023/03/10 09:14:36;;;;;;;1.38;1.00;;;23.40;46.30;;;;;;4982174;28;20027;-65
2023/03/10 09:17:02;;;;;;;1.58;1.17;;;23.40;46.30;;;;;;4984441;28;20181;-65
2023/03/10 09:19:27;;;;;;;1.60;1.05;;;23.50;45.30;;;;;;4984532;28;20518;-65
2023/03/10 09:21:56;;;;;;;1.95;1.00;;;23.50;44.30;;;;;;4982880;28;20030;-65
2023/03/10 09:24:22;;;;;;;2.30;1.23;;;23.50;44.10;;;;;;4983303;28;20093;-65
2023/03/10 09:26:48;;;;;;;1.10;0.88;;;23.40;44.00;;;;;;4985007;28;20337;-65
2023/03/10 09:29:13;;;;;;;1.73;1.10;;;23.50;44.00;;;;;;4981484;28;20053;-65
2023/03/10 09:31:39;;;;;;;1.40;1.00;;;23.50;44.10;;;;;;4988569;28;20035;-65
2023/03/10 09:34:06;;;;;;;1.42;0.90;;;23.40;43.90;;;;;;4986010;28;20098;-65
2023/03/10 09:36:32;;;;;;;1.88;1.40;;;23.40;43.80;;;;;;4982036;28;20475;-65
2023/03/10 09:38:58;;;;;;;1.20;1.00;;;23.40;43.60;;;;;;4983922;28;20025;-65
2023/03/10 09:41:44;;;;;;;1.08;0.98;;;23.40;43.70;;;;;;4986919;28;20034;-65
2023/03/10 09:44:45;;;;;;;1.30;0.82;;;23.40;43.70;;;;;;4982435;28;20537;-66
2023/03/10 09:47:23;;;;;;;1.00;0.90;;;23.40;43.60;;;;;;4983691;28;20027;-65
2023/03/10 09:50:10;;;;;;;1.00;0.90;;;23.30;43.50;;;;;;4983302;28;21067;-64
2023/03/10 09:52:54;;;;;;;1.13;0.95;;;23.30;43.80;;;;;;4983337;28;20554;-64
2023/03/10 09:55:40;;;;;;;1.10;0.90;;;23.30;43.60;;;;;;4981777;28;20074;-65
2023/03/10 09:58:26;;;;;;;1.35;1.00;;;23.30;43.40;;;;;;4982291;28;20034;-64
2023/03/10 10:00:52;;;;;;;1.35;1.00;;;23.30;43.70;;;;;;4983421;28;20027;-64
2023/03/10 10:03:35;;;;;;;1.55;1.00;;;23.30;43.60;;;;;;4981448;28;20153;-65
2023/03/10 10:06:04;;;;;;;1.00;0.90;;;23.20;43.30;;;;;;4980714;28;20437;-64
2023/03/10 10:08:41;;;;;;;1.20;0.90;;;23.30;43.10;;;;;;4982093;28;20026;-64
2023/03/10 10:11:13;;;;;;;1.17;0.90;;;23.20;43.40;;;;;;4980569;28;20587;-65
2023/03/10 10:13:40;;;;;;;1.73;1.02;;;23.20;43.50;;;;;;4981970;28;20685;-65
2023/03/10 10:16:17;;;;;;;1.17;0.90;;;23.30;43.90;;;;;;4980549;28;20027;-67
2023/03/10 10:18:52;;;;;;;1.30;0.90;;;23.20;43.60;;;;;;4983001;28;20410;-64
2023/03/10 10:21:31;;;;;;;1.30;0.80;;;23.20;43.50;;;;;;4981771;28;20482;-64
2023/03/10 10:23:58;;;;;;;1.35;1.00;;;23.20;43.50;;;;;;4983489;28;20034;-64
2023/03/10 10:26:27;;;;;;;1.25;0.90;;;23.20;43.50;;;;;;4980859;28;20038;-65
2023/03/10 10:28:56;;;;;;;0.98;0.82;;;23.20;43.40;;;;;;4982139;28;20507;-64
2023/03/10 10:31:28;;;;;;;0.80;0.80;;;23.20;43.50;;;;;;4980316;28;20387;-64
2023/03/10 10:34:19;;;;;;;1.02;0.80;;;23.20;43.70;;;;;;4982675;28;20076;-64
2023/03/10 10:36:51;;;;;;;1.20;0.88;;;23.20;43.90;;;;;;4976378;28;20043;-65
2023/03/10 10:39:40;;;;;;;1.10;0.80;;;23.20;44.00;;;;;;4983554;28;20467;-63
2023/03/10 10:42:36;;;;;;;1.77;1.00;;;23.20;43.80;;;;;;4981200;28;20502;-65
2023/03/10 10:45:24;;;;;;;1.10;0.80;;;23.20;43.80;;;;;;4980694;28;20574;-64
2023/03/10 10:47:51;;;;;;;0.98;0.80;;;23.20;43.90;;;;;;4984553;28;20438;-64
2023/03/10 10:50:21;;;;;;;1.05;0.85;;;23.20;44.10;;;;;;4989479;28;20059;-64
2023/03/10 10:52:51;;;;;;;0.77;0.68;;;23.20;43.50;;;;;;4981155;28;20542;-64
2023/03/10 10:55:33;;;;;;;0.98;0.88;;;23.20;43.90;;;;;;4981324;28;20395;-64
2023/03/10 10:58:01;;;;;;;0.70;0.70;;;23.10;43.00;;;;;;4981417;28;20031;-64
2023/03/10 11:00:35;;;;;;;0.60;0.60;;;23.10;43.50;;;;;;4982188;28;20092;-64
2023/03/10 11:03:19;;;;;;;0.63;0.60;;;23.10;43.30;;;;;;4982804;28;20398;-63
2023/03/10 11:05:44;;;;;;;0.88;0.60;;;23.10;43.50;;;;;;4980487;28;20027;-64
2023/03/10 11:08:22;;;;;;;0.80;0.68;;;23.10;43.60;;;;;;4988459;28;20451;-64
2023/03/10 11:10:57;;;;;;;0.73;0.60;;;23.20;43.70;;;;;;4993453;28;20038;-64
2023/03/10 11:13:38;;;;;;;0.82;0.60;;;23.20;43.80;;;;;;4987015;28;20084;-64
2023/03/10 11:16:30;;;;;;;0.73;0.65;;;23.20;44.00;;;;;;4986396;28;20033;-65
2023/03/10 11:19:07;;;;;;;2.05;0.93;;;23.20;44.00;;;;;;4982168;28;20026;-64
2023/03/10 11:21:40;;;;;;;1.40;0.90;;;23.20;43.80;;;;;;4982631;28;20026;-64
2023/03/10 11:24:25;;;;;;;1.00;0.70;;;23.20;44.20;;;;;;4984223;28;20026;-64
2023/03/10 11:26:51;;;;;;;1.65;0.80;;;23.20;44.30;;;;;;4987604;28;20070;-64
2023/03/10 11:29:23;;;;;;;0.98;0.80;;;23.20;44.80;;;;;;4988311;28;20075;-64
2023/03/10 11:31:58;;;;;;;0.93;0.70;;;23.20;44.20;;;;;;4988196;28;20087;-64
2023/03/10 11:34:29;;;;;;;1.27;0.90;;;23.20;44.10;;;;;;4988138;28;20026;-65
2023/03/10 11:37:28;;;;;;;0.98;0.80;;;23.20;44.30;;;;;;4998342;28;20037;-64
2023/03/10 11:39:57;;;;;;;1.13;0.75;;;23.20;44.30;;;;;;4989067;28;20482;-64
2023/03/10 11:43:05;;;;;;;0.90;0.80;;;23.20;44.10;;;;;;4993493;28;20102;-64
2023/03/10 11:45:54;;;;;;;1.20;0.73;;;23.20;44.10;;;;;;4984746;28;20070;-64
2023/03/10 11:48:55;;;;;;;1.33;0.80;;;23.20;44.50;;;;;;4986283;28;20393;-64
2023/03/10 11:51:50;;;;;;;1.63;0.90;;;23.20;44.00;;;;;;4980139;28;20094;-64
2023/03/10 11:54:30;;;;;;;1.15;0.70;;;23.20;44.10;;;;;;4996929;28;20045;-64
2023/03/10 11:56:58;;;;;;;1.10;0.80;;;23.20;44.20;;;;;;4994599;28;20061;-63
2023/03/10 11:59:27;;;;;;;0.93;0.80;;;23.20;44.30;;;;;;4986565;28;20029;-64
2023/03/10 12:01:56;;;;;;;;;;;23.20;44.10;;;;;;4996208;28;20018;-64
2023/03/10 12:04:40;;;;;;;0.90;0.80;;;23.20;44.40;;;;;;4988052;28;19921;-64
2023/03/10 12:07:14;;;;;;;1.10;0.80;;;23.20;44.30;;;;;;4984993;28;20042;-64
2023/03/10 12:09:53;;;;;;;0.82;0.70;;;23.20;43.90;;;;;;4983742;28;20169;-65
2023/03/10 12:12:35;;;;;;;0.82;0.80;;;23.20;43.80;;;;;;4986841;28;20462;-65
2023/03/10 12:15:11;;;;;;;1.10;0.70;;;23.20;43.20;;;;;;4989935;28;20034;-64
2023/03/10 12:17:39;;;;;;;1.10;0.70;;;23.20;42.70;;;;;;4986289;28;20043;-64
2023/03/10 12:20:14;;;;;;;1.13;0.70;;;23.20;42.70;;;;;;4998271;28;20077;-65
2023/03/10 12:22:58;;;;;;;1.20;0.70;;;23.20;43.00;;;;;;4990645;28;20023;-65
2023/03/10 12:25:29;;;;;;;1.23;0.70;;;23.30;43.20;;;;;;4985254;28;20097;-66
2023/03/10 12:28:19;;;;;;;1.80;1.00;;;23.20;43.10;;;;;;4982912;28;20034;-65
2023/03/10 12:30:59;;;;;;;0.80;0.57;;;23.20;43.10;;;;;;4981285;28;20112;-65
2023/03/10 12:33:36;;;;;;;0.88;0.70;;;23.30;43.20;;;;;;4990654;28;20077;-65
2023/03/10 12:36:20;;;;;;;1.45;0.80;;;23.30;43.20;;;;;;4982955;28;20077;-65
2023/03/10 12:39:29;;;;;;;1.02;0.70;;;23.30;43.40;;;;;;4982424;28;20027;-65
2023/03/10 12:41:56;;;;;;;1.05;0.80;;;23.30;43.70;;;;;;4972800;28;20130;-65
2023/03/10 12:44:22;;;;;;;1.17;0.60;;;23.30;44.10;;;;;;4985273;28;20105;-66
2023/03/10 12:46:51;;;;;;;1.27;0.73;;;23.30;43.40;;;;;;4982565;28;20084;-66
2023/03/10 12:49:44;;;;;;;2.25;0.70;;;23.20;43.40;;;;;;4981688;28;20080;-67
2023/03/10 12:52:31;;;;;;;1.05;0.70;;;23.30;43.50;;;;;;4984361;28;20026;-67
2023/03/10 12:55:16;;;;;;;1.88;0.77;;;23.30;43.60;;;;;;4980899;28;20479;-66
2023/03/10 12:57:56;;;;;;;1.02;0.70;;;23.30;43.70;;;;;;4981939;28;20065;-66
2023/03/10 13:00:28;;;;;;;1.65;0.70;;;23.30;44.10;;;;;;4983575;28;20042;-66